Time;durP1;ratioP1;P1;durP2;ratioP2;P2;SDS_P1;SDS_P2;PMS_P1;PMS_P2;Temp;Humidity;BMP_temperature;BMP_pressure;BME280_temperature;BME280_humidity;BME280_pressure;Samples;Min_cycle;Max_cycle;Signal;HPM_P1;HPM_P2
2020/12/03 00:01:24;;;;;;;7.37;3.33;;;8.00;99.90;;;;;;4897936;29;20234;-76
2020/12/03 00:03:52;;;;;;;7.77;3.00;;;8.00;99.90;;;;;;4897989;29;20674;-76
2020/12/03 00:06:23;;;;;;;9.33;3.50;;;8.00;99.90;;;;;;4898136;29;20214;-76
2020/12/03 00:08:54;;;;;;;6.80;3.07;;;7.80;99.90;;;;;;4898023;29;20238;-76
2020/12/03 00:11:24;;;;;;;8.80;3.07;;;7.80;99.90;;;;;;4897785;29;20234;-76
2020/12/03 00:13:50;;;;;;;10.67;3.43;;;7.80;99.90;;;;;;4897757;29;20214;-76
2020/12/03 00:16:16;;;;;;;10.13;3.73;;;7.70;99.90;;;;;;4897647;29;20610;-76
2020/12/03 00:18:43;;;;;;;6.33;2.97;;;7.80;99.90;;;;;;4897853;29;20670;-76
2020/12/03 00:21:11;;;;;;;12.13;3.00;;;7.80;99.90;;;;;;4897736;29;20248;-77
2020/12/03 00:23:39;;;;;;;9.17;2.97;;;7.80;99.90;;;;;;4897662;29;20211;-76
2020/12/03 00:26:06;;;;;;;6.50;2.63;;;7.90;99.90;;;;;;4897613;29;20206;-76
2020/12/03 00:28:36;;;;;;;11.03;3.30;;;7.90;99.90;;;;;;4897432;29;20238;-76
2020/12/03 00:31:03;;;;;;;6.57;2.63;;;7.90;99.90;;;;;;4897577;29;20666;-76
2020/12/03 00:33:29;;;;;;;9.50;3.60;;;7.90;99.90;;;;;;4897996;29;20214;-76
2020/12/03 00:35:56;;;;;;;8.90;2.90;;;7.80;99.90;;;;;;4901737;29;20217;-78
2020/12/03 00:38:23;;;;;;;9.20;3.27;;;7.70;99.90;;;;;;4901637;29;20214;-78
2020/12/03 00:40:50;;;;;;;8.90;3.20;;;7.70;99.90;;;;;;4901324;29;20210;-78
2020/12/03 00:43:17;;;;;;;8.13;2.90;;;7.80;99.90;;;;;;4901110;29;20217;-78
2020/12/03 00:45:46;;;;;;;9.63;3.10;;;7.70;99.90;;;;;;4901200;29;20218;-78
2020/12/03 00:48:12;;;;;;;5.47;2.60;;;7.60;99.90;;;;;;4901311;29;20244;-78
2020/12/03 00:50:38;;;;;;;6.43;2.93;;;7.70;99.90;;;;;;4901250;29;20211;-78
2020/12/03 00:53:05;;;;;;;8.17;2.60;;;7.70;99.90;;;;;;4901038;29;20735;-78
2020/12/03 00:55:31;;;;;;;8.93;2.57;;;7.80;99.90;;;;;;4901732;29;20211;-78
2020/12/03 00:57:57;;;;;;;7.77;2.27;;;7.90;99.90;;;;;;4901056;29;20213;-78
2020/12/03 01:00:24;;;;;;;7.83;3.00;;;7.90;99.90;;;;;;4901087;29;20213;-78
2020/12/03 01:02:51;;;;;;;7.00;2.47;;;7.80;99.90;;;;;;4900967;29;20230;-78
2020/12/03 01:05:18;;;;;;;6.20;1.97;;;7.80;99.90;;;;;;4900928;29;20210;-78
2020/12/03 01:07:45;;;;;;;7.37;2.10;;;7.80;99.90;;;;;;4900898;29;20214;-78
2020/12/03 01:10:18;;;;;;;4.80;2.20;;;7.70;99.90;;;;;;4900813;29;20658;-78
2020/12/03 01:12:44;;;;;;;9.07;2.67;;;7.70;99.90;;;;;;4901778;29;20245;-78
2020/12/03 01:15:10;;;;;;;5.40;2.67;;;7.80;99.90;;;;;;4900641;29;20237;-78
2020/12/03 01:17:37;;;;;;;7.40;3.33;;;7.70;99.90;;;;;;4900872;29;20214;-78
2020/12/03 01:20:08;;;;;;;8.03;2.53;;;7.60;99.90;;;;;;4900852;29;20214;-78
2020/12/03 01:22:34;;;;;;;6.67;2.90;;;7.60;99.90;;;;;;4900644;29;20238;-78
2020/12/03 01:25:00;;;;;;;10.37;3.37;;;7.60;99.90;;;;;;4900368;29;20214;-76
2020/12/03 01:27:27;;;;;;;6.07;2.80;;;7.70;99.90;;;;;;4900642;29;20214;-76
2020/12/03 01:29:53;;;;;;;6.67;3.37;;;7.60;99.90;;;;;;4900541;29;20265;-76
2020/12/03 01:32:19;;;;;;;7.97;2.87;;;7.60;99.90;;;;;;4900480;29;20230;-78
2020/12/03 01:34:45;;;;;;;8.30;3.20;;;7.70;99.90;;;;;;4900468;29;20214;-79
2020/12/03 01:37:15;;;;;;;7.90;2.50;;;7.70;99.90;;;;;;4900437;29;20216;-78
2020/12/03 01:39:42;;;;;;;10.43;3.17;;;7.80;99.90;;;;;;4900365;29;20214;-78
2020/12/03 01:42:08;;;;;;;9.80;3.27;;;7.80;99.90;;;;;;4900140;29;20230;-78
2020/12/03 01:44:39;;;;;;;5.97;2.87;;;7.70;99.90;;;;;;4900404;29;20212;-78
2020/12/03 01:47:06;;;;;;;10.33;2.83;;;7.70;99.90;;;;;;4899139;29;20234;-79
2020/12/03 01:49:34;;;;;;;5.83;2.87;;;7.70;99.90;;;;;;4899969;29;20597;-78
2020/12/03 01:52:01;;;;;;;8.40;3.03;;;7.70;99.90;;;;;;4899978;29;20634;-79
2020/12/03 01:54:28;;;;;;;7.13;2.50;;;7.60;99.90;;;;;;4900350;29;20273;-78
2020/12/03 01:57:01;;;;;;;7.83;3.00;;;7.60;99.90;;;;;;4900049;29;20609;-78
2020/12/03 01:59:32;;;;;;;8.63;3.10;;;7.50;99.90;;;;;;4900332;29;20304;-78
2020/12/03 02:01:59;;;;;;;5.80;2.73;;;7.50;99.90;;;;;;4899913;29;20237;-78
2020/12/03 02:04:26;;;;;;;8.07;3.10;;;7.50;99.90;;;;;;4899905;29;20210;-78
2020/12/03 02:06:58;;;;;;;8.43;3.07;;;7.50;99.90;;;;;;4900126;29;20562;-78
2020/12/03 02:09:25;;;;;;;7.67;2.60;;;7.60;99.90;;;;;;4900075;29;20274;-78
2020/12/03 02:11:52;;;;;;;7.90;3.17;;;7.70;99.90;;;;;;4899749;29;20261;-79
2020/12/03 02:14:18;;;;;;;8.57;2.93;;;7.70;99.90;;;;;;4899501;29;20218;-79
2020/12/03 02:16:44;;;;;;;8.93;2.73;;;7.70;99.90;;;;;;4899772;29;20214;-79
2020/12/03 02:19:17;;;;;;;9.57;2.73;;;7.60;99.90;;;;;;4899782;29;20214;-78
2020/12/03 02:21:45;;;;;;;10.30;3.30;;;7.60;99.90;;;;;;4899551;29;20230;-78
2020/12/03 02:24:11;;;;;;;12.53;2.80;;;7.60;99.90;;;;;;4899641;29;20210;-78
2020/12/03 02:26:37;;;;;;;10.17;2.90;;;7.70;99.90;;;;;;4899547;29;20577;-78
2020/12/03 02:29:04;;;;;;;7.70;2.93;;;7.60;99.90;;;;;;4899324;29;20257;-78
2020/12/03 02:31:31;;;;;;;6.93;2.80;;;7.60;99.90;;;;;;4899292;29;20225;-79
2020/12/03 02:33:57;;;;;;;9.17;2.67;;;7.50;99.90;;;;;;4899522;29;20213;-78
2020/12/03 02:36:23;;;;;;;6.73;3.33;;;7.60;99.90;;;;;;4899609;29;20215;-78
2020/12/03 02:38:50;;;;;;;9.13;2.93;;;7.60;99.90;;;;;;4899251;29;20211;-78
2020/12/03 02:41:16;;;;;;;8.10;3.03;;;7.70;99.90;;;;;;4899230;29;20732;-78
2020/12/03 02:43:42;;;;;;;6.27;2.93;;;7.70;99.90;;;;;;4899500;29;20210;-78
2020/12/03 02:46:09;;;;;;;12.60;3.67;;;7.80;99.90;;;;;;4899116;29;20211;-78
2020/12/03 02:48:35;;;;;;;10.00;3.00;;;7.80;99.90;;;;;;4899259;29;20260;-78
2020/12/03 02:51:01;;;;;;;6.87;3.57;;;7.70;99.90;;;;;;4899100;29;20210;-78
2020/12/03 02:53:27;;;;;;;5.33;2.53;;;7.70;99.90;;;;;;4899119;29;20241;-78
2020/12/03 02:55:54;;;;;;;8.53;2.93;;;7.70;99.90;;;;;;4899033;29;20574;-78
2020/12/03 02:58:20;;;;;;;10.67;4.00;;;7.60;99.90;;;;;;4898671;29;20222;-78
2020/12/03 03:00:46;;;;;;;9.90;2.83;;;7.60;99.90;;;;;;4898653;29;20234;-79
2020/12/03 03:03:13;;;;;;;8.67;3.30;;;7.50;99.90;;;;;;4898889;29;20585;-79
2020/12/03 03:05:39;;;;;;;12.30;3.53;;;7.40;99.90;;;;;;4898883;29;20210;-78
2020/12/03 03:08:05;;;;;;;5.33;2.73;;;7.50;99.90;;;;;;4898626;29;20207;-78
2020/12/03 03:10:31;;;;;;;7.70;3.30;;;7.40;99.90;;;;;;4898864;29;20218;-78
2020/12/03 03:12:58;;;;;;;6.70;2.43;;;7.50;99.90;;;;;;4898528;29;20618;-78
2020/12/03 03:15:25;;;;;;;12.00;3.20;;;7.40;99.90;;;;;;4898455;29;20218;-78
2020/12/03 03:17:51;;;;;;;5.10;2.83;;;7.40;99.90;;;;;;4898729;29;20218;-78
2020/12/03 03:20:17;;;;;;;5.47;2.63;;;7.50;99.90;;;;;;4898397;29;20610;-78
2020/12/03 03:22:43;;;;;;;11.47;3.77;;;7.50;99.90;;;;;;4898655;29;20237;-78
2020/12/03 03:25:10;;;;;;;13.10;3.13;;;7.40;99.90;;;;;;4898494;29;20207;-78
2020/12/03 03:27:36;;;;;;;7.47;3.20;;;7.30;99.90;;;;;;4898397;29;20663;-78
2020/12/03 03:30:04;;;;;;;7.37;3.50;;;7.40;99.90;;;;;;4898215;29;20246;-78
2020/12/03 03:32:30;;;;;;;10.23;2.53;;;7.50;99.90;;;;;;4897809;29;20704;-78
2020/12/03 03:34:56;;;;;;;6.53;3.57;;;7.50;99.90;;;;;;4898468;29;20206;-78
2020/12/03 03:37:23;;;;;;;9.30;3.43;;;7.50;99.90;;;;;;4898689;29;20206;-78
2020/12/03 03:39:49;;;;;;;8.97;3.50;;;7.40;99.90;;;;;;4898425;29;20222;-78
2020/12/03 03:42:15;;;;;;;9.87;3.43;;;7.30;99.90;;;;;;4898140;29;20259;-78
2020/12/03 03:44:41;;;;;;;7.87;3.37;;;7.30;99.90;;;;;;4898268;29;20222;-78
2020/12/03 03:47:08;;;;;;;8.87;3.40;;;7.40;99.90;;;;;;4898009;29;20206;-78
2020/12/03 03:49:35;;;;;;;6.57;3.13;;;7.50;99.90;;;;;;4898056;29;20241;-78
2020/12/03 03:52:01;;;;;;;6.03;2.90;;;7.50;99.90;;;;;;4898093;29;20235;-78
2020/12/03 03:54:28;;;;;;;9.37;2.90;;;7.50;99.90;;;;;;4897908;29;20221;-78
2020/12/03 03:56:54;;;;;;;7.07;3.43;;;7.50;99.90;;;;;;4898006;29;20278;-78
2020/12/03 03:59:20;;;;;;;8.47;3.63;;;7.50;99.90;;;;;;4898480;29;20218;-78
2020/12/03 04:01:46;;;;;;;8.33;3.50;;;7.50;99.90;;;;;;4898045;29;20231;-78
2020/12/03 04:04:13;;;;;;;7.87;3.83;;;7.50;99.90;;;;;;4898219;29;20218;-78
2020/12/03 04:06:40;;;;;;;7.83;3.30;;;7.60;99.90;;;;;;4897959;29;20210;-78
2020/12/03 04:09:06;;;;;;;7.13;2.93;;;7.50;99.90;;;;;;4897129;29;20234;-78
2020/12/03 04:11:32;;;;;;;8.73;2.83;;;7.40;99.90;;;;;;4897806;29;20231;-78
2020/12/03 04:13:58;;;;;;;8.87;2.63;;;7.50;99.90;;;;;;4897723;29;20701;-78
2020/12/03 04:16:24;;;;;;;8.27;3.87;;;7.50;99.90;;;;;;4897813;29;20225;-78
2020/12/03 04:18:50;;;;;;;7.07;3.13;;;7.50;99.90;;;;;;4898096;29;20227;-78
2020/12/03 04:21:18;;;;;;;10.40;3.50;;;7.60;99.90;;;;;;4897866;29;20594;-78
2020/12/03 04:23:44;;;;;;;7.47;3.27;;;7.60;99.90;;;;;;4897852;29;20234;-78
2020/12/03 04:26:11;;;;;;;10.03;3.33;;;7.40;99.90;;;;;;4897561;29;20689;-78
2020/12/03 04:28:38;;;;;;;7.83;3.50;;;7.40;99.90;;;;;;4898057;29;20249;-78
2020/12/03 04:31:04;;;;;;;6.53;3.17;;;7.40;99.90;;;;;;4897723;29;20221;-78
2020/12/03 04:33:30;;;;;;;10.10;3.43;;;7.30;99.90;;;;;;4897827;29;20210;-79
2020/12/03 04:35:57;;;;;;;10.07;3.53;;;7.20;99.90;;;;;;4897620;29;20214;-78
2020/12/03 04:38:24;;;;;;;10.73;3.40;;;7.00;99.90;;;;;;4897516;29;20688;-78
2020/12/03 04:40:52;;;;;;;6.97;3.57;;;7.20;99.90;;;;;;4897609;29;20308;-78
2020/12/03 04:43:26;;;;;;;9.40;3.90;;;7.10;99.90;;;;;;4897865;29;20215;-78
2020/12/03 04:45:59;;;;;;;7.80;3.20;;;7.00;99.90;;;;;;4897630;29;20241;-78
2020/12/03 04:48:48;;;;;;;9.30;3.10;;;7.10;99.90;;;;;;4897484;29;20230;-77
2020/12/03 04:51:38;;;;;;;6.13;2.67;;;7.10;99.90;;;;;;4897498;29;20242;-78
2020/12/03 04:54:20;;;;;;;7.20;3.57;;;7.20;99.90;;;;;;4897732;29;20221;-78
2020/12/03 04:56:56;;;;;;;10.63;3.37;;;7.20;99.90;;;;;;4897424;29;20215;-78
2020/12/03 04:59:37;;;;;;;5.83;3.10;;;7.10;99.90;;;;;;4897480;29;20210;-78
2020/12/03 05:02:21;;;;;;;9.47;2.97;;;7.20;99.90;;;;;;4897472;29;20242;-78
2020/12/03 05:04:59;;;;;;;7.67;3.10;;;7.20;99.90;;;;;;4897457;29;20218;-78
2020/12/03 05:07:28;;;;;;;7.80;3.00;;;7.00;99.90;;;;;;4897642;29;20210;-78
2020/12/03 05:10:00;;;;;;;4.73;2.73;;;7.00;99.90;;;;;;4897360;29;20242;-78
2020/12/03 05:12:31;;;;;;;4.80;2.87;;;7.00;99.90;;;;;;4897376;29;20230;-78
2020/12/03 05:15:05;;;;;;;5.63;2.83;;;7.00;99.90;;;;;;4897404;29;20226;-78
2020/12/03 05:17:45;;;;;;;4.50;2.93;;;7.10;99.90;;;;;;4897516;29;20237;-78
2020/12/03 05:20:38;;;;;;;4.20;2.40;;;7.20;99.90;;;;;;4898404;29;20206;-78
2020/12/03 05:23:12;;;;;;;7.63;2.20;;;7.20;99.90;;;;;;4900675;29;20234;-78
2020/12/03 05:25:39;;;;;;;7.53;2.80;;;7.30;99.90;;;;;;4900744;29;20214;-78
2020/12/03 05:28:29;;;;;;;4.10;2.23;;;7.40;99.90;;;;;;4900748;29;20206;-78
2020/12/03 05:31:06;;;;;;;9.23;3.13;;;7.30;99.90;;;;;;4900432;29;20206;-78
2020/12/03 05:33:33;;;;;;;7.50;3.57;;;7.20;99.90;;;;;;4900472;29;20217;-78
2020/12/03 05:36:00;;;;;;;8.20;3.00;;;7.20;99.90;;;;;;4900257;29;20206;-78
2020/12/03 05:38:27;;;;;;;5.13;2.60;;;7.10;99.90;;;;;;4900446;29;20242;-78
2020/12/03 05:40:56;;;;;;;7.00;3.13;;;7.00;99.90;;;;;;4900367;29;20214;-78
2020/12/03 05:43:22;;;;;;;6.00;3.13;;;6.90;99.90;;;;;;4900250;29;20226;-78
2020/12/03 05:45:48;;;;;;;7.80;3.67;;;6.90;99.90;;;;;;4900419;29;20211;-78
2020/12/03 05:48:16;;;;;;;6.47;3.10;;;6.90;99.90;;;;;;4899955;29;20211;-78
2020/12/03 05:50:43;;;;;;;9.67;3.50;;;6.80;99.90;;;;;;4900117;29;20678;-78
2020/12/03 05:53:14;;;;;;;10.07;3.73;;;6.90;99.90;;;;;;4900080;29;20230;-78
2020/12/03 05:55:41;;;;;;;6.07;3.20;;;6.80;99.90;;;;;;4899845;29;20210;-78
2020/12/03 05:58:27;;;;;;;6.57;3.60;;;6.80;99.90;;;;;;4900222;29;20236;-78
2020/12/03 06:01:06;;;;;;;6.27;3.27;;;6.90;99.90;;;;;;4899910;29;20210;-78
2020/12/03 06:03:48;;;;;;;7.27;3.40;;;7.00;99.90;;;;;;4899954;29;20233;-78
2020/12/03 06:06:59;;;;;;;9.67;3.40;;;7.10;99.90;;;;;;4899706;29;20815;-78
2020/12/03 06:09:38;;;;;;;7.20;3.40;;;7.00;99.90;;;;;;4889826;29;20277;-78
2020/12/03 06:12:20;;;;;;;10.57;4.10;;;6.90;99.90;;;;;;4900052;29;20693;-78
2020/12/03 06:15:12;;;;;;;7.93;3.33;;;7.00;99.90;;;;;;4899827;29;20222;-78
2020/12/03 06:17:54;;;;;;;7.13;3.53;;;7.00;99.90;;;;;;4899881;29;20252;-78
2020/12/03 06:20:43;;;;;;;9.70;3.60;;;7.00;99.90;;;;;;4899736;29;20210;-78
2020/12/03 06:23:44;;;;;;;10.07;3.17;;;7.00;99.90;;;;;;4899568;29;20620;-78
2020/12/03 06:26:44;;;;;;;7.03;3.07;;;7.00;99.90;;;;;;4899736;29;20210;-78
2020/12/03 06:29:32;;;;;;;10.00;3.50;;;7.00;99.90;;;;;;4899499;29;20238;-78
2020/12/03 06:32:30;;;;;;;11.77;4.00;;;7.00;99.90;;;;;;4898823;29;20230;-78
2020/12/03 06:35:02;;;;;;;5.23;3.10;;;7.00;99.90;;;;;;4899589;29;20217;-78
2020/12/03 06:37:34;;;;;;;5.83;3.03;;;7.10;99.90;;;;;;4899087;29;20214;-78
2020/12/03 06:40:04;;;;;;;6.80;3.00;;;7.10;99.90;;;;;;4899549;29;20218;-78
2020/12/03 06:42:37;;;;;;;8.30;3.03;;;7.00;99.90;;;;;;4899366;29;20830;-78
2020/12/03 06:45:21;;;;;;;6.23;3.10;;;7.00;99.90;;;;;;4899397;29;20207;-78
2020/12/03 06:48:05;;;;;;;7.17;2.90;;;7.00;99.90;;;;;;4899071;29;20217;-78
2020/12/03 06:50:57;;;;;;;5.30;3.57;;;6.90;99.90;;;;;;4899249;29;20242;-78
2020/12/03 06:53:58;;;;;;;6.43;3.50;;;6.80;99.90;;;;;;4899071;29;20217;-78
2020/12/03 06:57:02;;;;;;;9.67;3.67;;;6.90;99.90;;;;;;4899298;29;20210;-78
2020/12/03 07:00:08;;;;;;;7.70;3.23;;;7.00;99.90;;;;;;4899096;29;20209;-78
2020/12/03 07:02:58;;;;;;;9.47;3.70;;;7.00;99.90;;;;;;4898463;29;20230;-78
2020/12/03 07:05:56;;;;;;;8.47;3.80;;;7.00;99.90;;;;;;4898887;29;20214;-78
2020/12/03 07:08:47;;;;;;;7.43;3.17;;;6.90;99.90;;;;;;4899537;29;20210;-78
2020/12/03 07:11:58;;;;;;;8.43;3.70;;;6.90;99.90;;;;;;4899402;29;20233;-78
2020/12/03 07:15:01;;;;;;;7.00;3.30;;;7.00;99.90;;;;;;4898551;29;20222;-78
2020/12/03 07:17:59;;;;;;;5.83;2.93;;;7.10;99.90;;;;;;4898510;29;20213;-77
2020/12/03 07:21:06;;;;;;;8.20;3.83;;;7.00;99.90;;;;;;4898472;29;20681;-77
2020/12/03 07:23:41;;;;;;;10.20;3.97;;;7.00;99.90;;;;;;4901002;29;20232;-78
2020/12/03 07:26:24;;;;;;;5.53;3.43;;;6.90;99.90;;;;;;4898631;29;20217;-78
2020/12/03 07:28:53;;;;;;;8.17;3.20;;;6.90;99.90;;;;;;4898381;29;20250;-77
2020/12/03 07:31:27;;;;;;;6.43;3.33;;;6.90;99.90;;;;;;4898395;29;20597;-78
2020/12/03 07:34:04;;;;;;;8.67;4.23;;;7.00;99.90;;;;;;4898425;29;20210;-78
2020/12/03 07:36:44;;;;;;;7.97;4.03;;;6.90;99.90;;;;;;4898370;29;20589;-78
2020/12/03 07:39:15;;;;;;;9.20;4.23;;;7.00;99.90;;;;;;4898275;29;20674;-78
2020/12/03 07:41:49;;;;;;;10.23;4.20;;;7.10;99.90;;;;;;4898138;29;20230;-78
2020/12/03 07:44:32;;;;;;;10.47;4.63;;;7.10;99.90;;;;;;4897461;29;20244;-78
2020/12/03 07:47:33;;;;;;;9.50;4.60;;;7.00;99.90;;;;;;4898103;29;20700;-77
2020/12/03 07:50:02;;;;;;;8.43;4.70;;;7.00;99.90;;;;;;4898065;29;20294;-78
2020/12/03 07:52:34;;;;;;;8.83;4.80;;;7.00;99.90;;;;;;4898046;29;20226;-78
2020/12/03 07:55:29;;;;;;;13.97;5.20;;;7.00;99.90;;;;;;4898375;29;20217;-77
2020/12/03 07:57:57;;;;;;;10.53;4.67;;;7.10;99.90;;;;;;4897993;29;20210;-78
2020/12/03 08:00:56;;;;;;;11.23;5.37;;;7.20;99.90;;;;;;4897823;29;20658;-77
2020/12/03 08:03:46;;;;;;;8.20;4.53;;;7.20;99.90;;;;;;4894676;29;20670;-77
2020/12/03 08:06:32;;;;;;;9.47;4.73;;;7.20;99.90;;;;;;4898042;29;20673;-77
2020/12/03 08:09:21;;;;;;;8.63;4.70;;;7.10;99.90;;;;;;4897810;29;20716;-76
2020/12/03 08:11:50;;;;;;;10.87;4.50;;;7.10;99.90;;;;;;4900046;29;20230;-76
2020/12/03 08:14:36;;;;;;;7.43;4.10;;;7.10;99.90;;;;;;4897938;29;20234;-77
2020/12/03 08:17:05;;;;;;;7.27;4.17;;;7.20;99.90;;;;;;4897955;29;20215;-77
2020/12/03 08:19:33;;;;;;;8.77;4.90;;;7.20;99.90;;;;;;4898378;29;20211;-77
2020/12/03 08:22:00;;;;;;;8.67;4.27;;;7.30;99.90;;;;;;4897749;29;20724;-77
2020/12/03 08:24:29;;;;;;;8.50;4.13;;;7.30;99.90;;;;;;4897919;29;20214;-77
2020/12/03 08:26:57;;;;;;;9.93;4.47;;;7.40;99.90;;;;;;4897761;29;20597;-77
2020/12/03 08:29:46;;;;;;;13.40;4.50;;;7.40;99.90;;;;;;4897519;29;20242;-76
2020/12/03 08:32:12;;;;;;;6.73;4.10;;;7.40;99.90;;;;;;4897497;29;20709;-77
2020/12/03 08:34:41;;;;;;;7.40;3.93;;;7.40;99.90;;;;;;4897899;29;20256;-76
2020/12/03 08:37:11;;;;;;;10.27;3.77;;;7.40;99.90;;;;;;4897869;29;20210;-77
2020/12/03 08:39:38;;;;;;;7.60;4.43;;;7.40;99.90;;;;;;4897993;29;20211;-76
2020/12/03 08:42:06;;;;;;;8.47;4.00;;;7.40;99.90;;;;;;4897773;29;20657;-77
2020/12/03 08:44:33;;;;;;;8.33;3.60;;;7.40;99.90;;;;;;4897735;29;20218;-78
2020/12/03 08:47:06;;;;;;;9.13;3.80;;;7.30;99.90;;;;;;4897622;29;20218;-77
2020/12/03 08:49:32;;;;;;;6.27;3.80;;;7.40;99.90;;;;;;4897597;29;20291;-78
2020/12/03 08:51:59;;;;;;;9.13;4.30;;;7.40;99.90;;;;;;4897724;29;20234;-78
2020/12/03 08:54:26;;;;;;;5.60;3.53;;;7.40;99.90;;;;;;4897656;29;20214;-78
2020/12/03 08:56:56;;;;;;;6.10;3.47;;;7.40;99.90;;;;;;4901098;29;20218;-78
2020/12/03 08:59:27;;;;;;;6.00;3.33;;;7.40;99.90;;;;;;4901201;29;20701;-77
2020/12/03 09:02:07;;;;;;;5.17;3.00;;;7.40;99.90;;;;;;4901263;29;20241;-77
2020/12/03 09:04:36;;;;;;;4.90;3.10;;;7.40;99.90;;;;;;4901196;29;20261;-77
2020/12/03 09:07:07;;;;;;;5.63;3.30;;;7.40;99.90;;;;;;4901032;29;20211;-78
2020/12/03 09:09:35;;;;;;;6.13;3.77;;;7.40;99.90;;;;;;4900874;29;20705;-77
2020/12/03 09:12:02;;;;;;;6.23;3.07;;;7.40;99.90;;;;;;4901145;29;20230;-78
2020/12/03 09:14:31;;;;;;;5.70;2.90;;;7.50;99.90;;;;;;4901015;29;20226;-77
2020/12/03 09:17:03;;;;;;;5.63;3.17;;;7.50;99.90;;;;;;4900779;29;20210;-77
2020/12/03 09:19:29;;;;;;;6.73;3.43;;;7.50;99.90;;;;;;4901072;29;20214;-77
2020/12/03 09:21:57;;;;;;;5.23;3.33;;;7.50;99.90;;;;;;4908805;29;20226;-76
2020/12/03 09:24:26;;;;;;;5.10;2.87;;;7.60;99.90;;;;;;4909324;29;20214;-77
2020/12/03 09:26:54;;;;;;;8.67;3.30;;;7.70;99.90;;;;;;4907323;29;20700;-78
2020/12/03 09:29:21;;;;;;;7.33;3.73;;;7.70;99.90;;;;;;4906798;29;20245;-78
2020/12/03 09:31:51;;;;;;;6.43;3.20;;;7.70;99.90;;;;;;4911378;29;20230;-77
2020/12/03 09:34:18;;;;;;;6.70;3.63;;;7.70;99.90;;;;;;4914318;29;20225;-77
2020/12/03 09:36:44;;;;;;;8.43;3.33;;;7.60;99.90;;;;;;4915211;29;20220;-79
2020/12/03 09:39:11;;;;;;;7.47;3.37;;;7.40;99.90;;;;;;4913840;29;20213;-78
2020/12/03 09:41:38;;;;;;;6.10;3.13;;;7.40;99.90;;;;;;4912512;29;20229;-79
2020/12/03 09:44:08;;;;;;;4.77;2.53;;;7.40;99.90;;;;;;4907687;29;20210;-79
2020/12/03 09:46:38;;;;;;;7.37;3.17;;;7.30;99.90;;;;;;4900541;29;20279;-78
2020/12/03 09:49:05;;;;;;;6.63;3.10;;;7.20;99.90;;;;;;4900143;29;20237;-78
2020/12/03 09:51:34;;;;;;;10.17;3.50;;;7.20;99.90;;;;;;4900484;29;20237;-78
2020/12/03 09:54:02;;;;;;;6.23;2.73;;;7.20;99.90;;;;;;4900311;29;20274;-77
2020/12/03 09:56:28;;;;;;;5.17;2.60;;;7.30;99.90;;;;;;4900544;29;20211;-77
2020/12/03 09:58:59;;;;;;;11.33;3.47;;;7.40;99.90;;;;;;4900416;29;20210;-77
2020/12/03 10:01:39;;;;;;;6.13;2.77;;;7.30;99.90;;;;;;4899954;29;20230;-77
2020/12/03 10:04:36;;;;;;;6.63;2.70;;;7.40;99.90;;;;;;4900472;29;20244;-77
2020/12/03 10:07:09;;;;;;;6.47;3.07;;;7.30;99.90;;;;;;4899404;29;20218;-77
2020/12/03 10:10:07;;;;;;;10.07;2.77;;;7.30;99.90;;;;;;4900049;29;20245;-77
2020/12/03 10:12:45;;;;;;;6.47;3.33;;;7.40;99.90;;;;;;4892256;29;20234;-78
2020/12/03 10:15:24;;;;;;;8.27;3.47;;;7.30;99.90;;;;;;4900092;29;20806;-78
2020/12/03 10:18:15;;;;;;;7.90;2.90;;;7.40;99.90;;;;;;4900069;29;20219;-78
2020/12/03 10:20:42;;;;;;;7.73;4.17;;;7.30;99.90;;;;;;4899869;29;20210;-78
2020/12/03 10:23:23;;;;;;;6.03;2.63;;;7.20;99.90;;;;;;4899921;29;20230;-78
2020/12/03 10:25:59;;;;;;;6.70;3.47;;;7.30;99.90;;;;;;4900068;29;20221;-78
2020/12/03 10:28:35;;;;;;;9.40;3.10;;;7.30;99.90;;;;;;4899817;29;20459;-78
2020/12/03 10:31:02;;;;;;;8.10;3.00;;;7.30;99.90;;;;;;4899496;29;20242;-78
2020/12/03 10:33:35;;;;;;;7.47;2.70;;;7.40;99.90;;;;;;4899778;29;20213;-78
2020/12/03 10:36:08;;;;;;;6.47;2.93;;;7.30;99.90;;;;;;4899747;29;20590;-78
2020/12/03 10:38:42;;;;;;;4.23;2.30;;;7.40;99.90;;;;;;4899423;29;20214;-78
2020/12/03 10:41:09;;;;;;;5.97;3.03;;;7.40;99.90;;;;;;4899348;29;20246;-78
2020/12/03 10:43:38;;;;;;;7.23;2.83;;;7.40;99.90;;;;;;4899565;29;20559;-78
2020/12/03 10:46:12;;;;;;;6.13;3.17;;;7.50;99.90;;;;;;4899516;29;20210;-78
2020/12/03 10:48:41;;;;;;;8.00;3.63;;;7.60;99.90;;;;;;4899509;29;20218;-78
2020/12/03 10:51:09;;;;;;;9.97;3.73;;;7.60;99.90;;;;;;4899235;29;20721;-78
2020/12/03 10:53:37;;;;;;;7.07;2.77;;;7.70;99.90;;;;;;4899200;29;20210;-78
2020/12/03 10:56:05;;;;;;;6.00;3.00;;;7.60;99.90;;;;;;4898984;29;20210;-78
2020/12/03 10:58:37;;;;;;;8.33;3.30;;;7.50;99.90;;;;;;4899051;29;20296;-78
2020/12/03 11:01:08;;;;;;;6.43;2.93;;;7.60;99.90;;;;;;4898804;29;20225;-78
2020/12/03 11:03:37;;;;;;;6.73;2.70;;;7.50;99.90;;;;;;4899233;29;20217;-78
2020/12/03 11:06:04;;;;;;;6.90;2.67;;;7.40;99.90;;;;;;4898996;29;20222;-77
2020/12/03 11:08:36;;;;;;;4.37;2.60;;;7.60;99.90;;;;;;4899569;29;20214;-78
2020/12/03 11:11:03;;;;;;;11.60;3.17;;;7.60;99.90;;;;;;4898749;29;20635;-78
2020/12/03 11:13:29;;;;;;;7.53;2.47;;;7.60;99.90;;;;;;4899265;29;20214;-78
2020/12/03 11:15:58;;;;;;;5.20;2.57;;;7.50;99.90;;;;;;4898819;29;20226;-77
2020/12/03 11:18:27;;;;;;;5.73;2.63;;;7.50;99.90;;;;;;4898879;29;20215;-77
2020/12/03 11:21:00;;;;;;;7.27;2.43;;;7.60;99.90;;;;;;4899260;29;20214;-77
2020/12/03 11:23:30;;;;;;;4.00;2.20;;;7.60;99.90;;;;;;4898646;29;20314;-77
2020/12/03 11:26:06;;;;;;;5.23;3.13;;;7.60;99.90;;;;;;4887555;29;20215;-70
2020/12/03 11:28:35;;;;;;;6.13;1.97;;;7.50;99.90;;;;;;4884006;29;20209;-74
2020/12/03 11:31:05;;;;;;;2.70;1.80;;;7.50;99.90;;;;;;4886217;29;20234;-69
2020/12/03 11:33:34;;;;;;;5.23;2.17;;;7.40;99.90;;;;;;4885994;29;20222;-75
2020/12/03 11:36:06;;;;;;;4.10;1.80;;;7.50;99.90;;;;;;4887604;29;20211;-75
2020/12/03 11:38:32;;;;;;;4.30;2.00;;;7.50;99.90;;;;;;4866199;29;20591;-81
2020/12/03 11:41:03;;;;;;;3.40;2.00;;;7.50;99.90;;;;;;4860241;29;20299;-80
2020/12/03 11:48:58;;;;;;;3.27;1.67;;;7.30;99.90;;;;;;4859016;29;20300;-72
2020/12/03 11:51:30;;;;;;;3.07;1.63;;;7.20;99.90;;;;;;4859077;29;20239;-72
2020/12/03 11:54:00;;;;;;;2.33;1.40;;;7.40;99.90;;;;;;4859703;29;20449;-73
2020/12/03 11:56:28;;;;;;;1.63;1.27;;;7.50;99.90;;;;;;4875313;29;20755;-73
2020/12/03 11:59:09;;;;;;;3.27;1.43;;;7.40;99.90;;;;;;4879193;29;20219;-73
2020/12/03 12:01:36;;;;;;;2.00;1.50;;;7.40;99.90;;;;;;4878492;29;20322;-74
2020/12/03 12:04:03;;;;;;;2.67;1.60;;;7.30;99.90;;;;;;4879241;29;20211;-74
2020/12/03 12:06:36;;;;;;;2.43;1.50;;;7.40;99.90;;;;;;4878605;29;20297;-73
2020/12/03 12:09:10;;;;;;;5.47;1.80;;;7.40;99.90;;;;;;4878938;29;20226;-73
2020/12/03 12:11:40;;;;;;;2.80;1.40;;;7.20;99.90;;;;;;4879029;29;20262;-73
2020/12/03 12:14:06;;;;;;;3.37;1.50;;;7.20;99.90;;;;;;4878998;29;20314;-74
2020/12/03 12:16:32;;;;;;;2.50;1.60;;;7.20;99.90;;;;;;4878019;29;20208;-73
2020/12/03 12:18:59;;;;;;;2.23;1.50;;;7.20;99.90;;;;;;4879019;29;20582;-74
2020/12/03 12:21:28;;;;;;;2.27;1.20;;;7.30;99.90;;;;;;4879242;29;20235;-73
2020/12/03 12:23:55;;;;;;;2.97;1.70;;;7.30;99.90;;;;;;4878820;29;20574;-74
2020/12/03 12:26:21;;;;;;;1.93;1.37;;;7.30;99.90;;;;;;4878881;29;20222;-73
2020/12/03 12:28:47;;;;;;;2.50;1.50;;;7.30;99.90;;;;;;4878811;29;20279;-73
2020/12/03 12:31:15;;;;;;;2.47;1.63;;;7.20;99.90;;;;;;4881216;29;20250;-72
2020/12/03 12:33:42;;;;;;;2.67;1.50;;;7.20;99.90;;;;;;4882197;29;20705;-73
2020/12/03 12:36:08;;;;;;;2.47;1.50;;;7.10;99.90;;;;;;4882440;29;20211;-73
2020/12/03 12:38:35;;;;;;;4.97;1.50;;;7.00;99.90;;;;;;4881797;29;20215;-73
2020/12/03 12:41:01;;;;;;;3.80;1.50;;;7.00;99.90;;;;;;4882638;29;20215;-73
2020/12/03 12:43:27;;;;;;;1.93;1.30;;;6.90;99.90;;;;;;4882698;29;20215;-73
2020/12/03 12:45:53;;;;;;;2.00;1.20;;;7.00;99.90;;;;;;4881952;29;20207;-73
2020/12/03 12:48:20;;;;;;;2.60;1.40;;;7.00;99.90;;;;;;4882102;29;20214;-71
2020/12/03 12:50:47;;;;;;;1.50;1.10;;;7.10;99.90;;;;;;4882524;29;20278;-73
2020/12/03 12:53:13;;;;;;;2.67;1.40;;;7.10;99.90;;;;;;4871343;29;20222;-77
2020/12/03 12:55:41;;;;;;;1.73;1.20;;;7.10;99.90;;;;;;4871222;29;20226;-74
2020/12/03 12:58:07;;;;;;;2.23;1.20;;;7.10;99.90;;;;;;4881252;29;20211;-73
2020/12/03 13:00:33;;;;;;;1.83;1.30;;;7.10;99.90;;;;;;4880387;29;20222;-71
2020/12/03 13:03:00;;;;;;;2.20;1.33;;;7.10;99.90;;;;;;4880699;29;20231;-71
2020/12/03 13:05:26;;;;;;;2.43;1.10;;;7.10;99.90;;;;;;4880358;29;20207;-73
2020/12/03 13:07:53;;;;;;;2.07;1.10;;;7.10;99.90;;;;;;4880555;29;20246;-75
2020/12/03 13:10:19;;;;;;;1.40;1.00;;;7.10;99.90;;;;;;4863427;29;20738;-69
2020/12/03 13:12:47;;;;;;;1.80;1.30;;;7.10;99.90;;;;;;4867079;29;20234;-76
2020/12/03 13:15:13;;;;;;;2.37;1.20;;;7.20;99.90;;;;;;4879690;29;20215;-72
2020/12/03 13:17:40;;;;;;;2.37;1.10;;;7.20;99.90;;;;;;4880455;29;20211;-77
2020/12/03 13:20:07;;;;;;;3.13;1.03;;;7.30;99.90;;;;;;4874230;29;20311;-72
2020/12/03 13:22:33;;;;;;;2.13;1.30;;;7.40;99.90;;;;;;4864443;29;20250;-74
2020/12/03 13:24:59;;;;;;;1.50;1.20;;;7.40;99.90;;;;;;4880572;29;20558;-73